Time;durP1;ratioP1;P1;durP2;ratioP2;P2;SDS_P1;SDS_P2;PMS_P1;PMS_P2;Temp;Humidity;BMP_temperature;BMP_pressure;BME280_temperature;BME280_humidity;BME280_pressure;Samples;Min_cycle;Max_cycle;Signal;HPM_P1;HPM_P2
2022/07/16 00:01:54;;;;;;;2.67;1.80;;;;;;;20.19;39.56;99468.28;4349338;33;33970;-79
2022/07/16 00:04:23;;;;;;;3.05;1.67;;;;;;;20.44;39.04;99462.63;4348038;33;35063;-79
2022/07/16 00:06:51;;;;;;;4.97;1.90;;;;;;;20.25;39.44;99457.38;4349612;33;34487;-79
2022/07/16 00:09:19;;;;;;;3.78;1.60;;;;;;;20.25;39.34;99452.09;4345929;33;33713;-86
2022/07/16 00:11:47;;;;;;;2.45;1.30;;;;;;;19.98;40.21;99466.66;4345222;33;33607;-83
2022/07/16 00:14:15;;;;;;;3.78;1.75;;;;;;;19.73;40.37;99461.63;4348055;33;35043;-79
2022/07/16 00:16:42;;;;;;;4.28;1.73;;;;;;;20.10;39.65;99457.28;4349614;33;35628;-79
2022/07/16 00:19:18;;;;;;;4.30;1.67;;;;;;;19.97;39.78;99457.00;4345051;33;34413;-80
2022/07/16 00:21:49;;;;;;;3.28;1.87;;;;;;;20.12;39.70;99450.13;4349582;33;34073;-79
2022/07/16 00:24:19;;;;;;;2.87;1.60;;;;;;;19.99;39.88;99453.34;4331763;33;35021;-80
2022/07/16 00:26:47;;;;;;;2.70;1.60;;;;;;;19.84;40.20;99451.47;4339738;33;34467;-80
2022/07/16 00:29:18;;;;;;;2.40;1.60;;;;;;;20.01;39.73;99458.56;4347042;33;34249;-79
2022/07/16 00:31:48;;;;;;;5.37;1.70;;;;;;;19.63;40.64;99459.41;4348584;33;34651;-79
2022/07/16 00:34:17;;;;;;;2.83;1.62;;;;;;;19.95;39.74;99457.09;4333245;33;34868;-79
2022/07/16 00:36:45;;;;;;;5.10;2.12;;;;;;;20.04;39.91;99459.28;4336188;33;34482;-80
2022/07/16 00:39:17;;;;;;;4.12;1.83;;;;;;;19.60;40.44;99453.41;4347801;33;33617;-80
2022/07/16 00:41:46;;;;;;;3.70;1.52;;;;;;;20.10;39.39;99452.87;4348156;33;34006;-79
2022/07/16 00:44:17;;;;;;;2.70;1.80;;;;;;;19.70;40.27;99455.56;4347721;33;35897;-80
2022/07/16 00:46:47;;;;;;;3.75;1.80;;;;;;;20.06;39.62;99453.94;4336183;33;34300;-79
2022/07/16 00:49:16;;;;;;;8.60;2.10;;;;;;;19.54;40.67;99453.72;4334854;33;35882;-80
2022/07/16 00:51:49;;;;;;;25.17;3.42;;;;;;;19.62;40.44;99462.13;4349221;33;33828;-79
2022/07/16 00:54:19;;;;;;;3.08;1.80;;;;;;;19.33;40.85;99459.03;4334577;33;34978;-82
2022/07/16 00:56:47;;;;;;;3.10;1.75;;;;;;;19.47;40.74;99456.62;4349325;33;34494;-80
2022/07/16 00:59:15;;;;;;;2.67;1.77;;;;;;;19.93;39.60;99460.75;4334456;33;34462;-79
2022/07/16 01:01:44;;;;;;;4.65;1.80;;;;;;;19.84;39.74;99457.59;4335940;33;33935;-79
2022/07/16 01:04:14;;;;;;;3.60;1.80;;;;;;;19.80;39.79;99465.72;4347667;33;35177;-79
2022/07/16 01:06:45;;;;;;;4.65;1.60;;;;;;;19.51;40.50;99455.53;4340627;33;34480;-79
2022/07/16 01:09:14;;;;;;;3.92;1.62;;;;;;;19.64;40.38;99452.34;4347808;33;33772;-79
2022/07/16 01:11:43;;;;;;;4.72;1.58;;;;;;;19.33;40.93;99456.41;4348931;33;33528;-80
2022/07/16 01:14:12;;;;;;;3.22;1.50;;;;;;;19.68;40.24;99456.56;4346141;33;36416;-79
2022/07/16 01:16:40;;;;;;;5.70;2.10;;;;;;;19.68;40.12;99461.84;4335886;33;34446;-80
2022/07/16 01:19:10;;;;;;;3.65;1.75;;;;;;;19.66;40.41;99454.00;4347660;33;33744;-90
2022/07/16 01:21:39;;;;;;;2.60;1.60;;;;;;;19.97;39.79;99457.00;4322727;33;33722;-91
2022/07/16 01:24:07;;;;;;;2.75;1.62;;;;;;;19.50;40.43;99455.59;4347424;33;34934;-81
2022/07/16 01:26:35;;;;;;;2.58;1.80;;;;;;;19.49;40.51;99452.13;4349200;33;34503;-79
2022/07/16 01:29:04;;;;;;;3.67;1.73;;;;;;;19.49;40.44;99457.41;4347497;33;33874;-79
2022/07/16 01:31:32;;;;;;;2.90;1.67;;;;;;;19.35;40.83;99453.69;4349111;33;34608;-79
2022/07/16 01:36:57;;;;;;;5.22;1.77;;;;;;;19.19;40.87;99453.50;4336608;33;34807;-80
2022/07/16 01:39:27;;;;;;;4.10;2.00;;;;;;;19.59;40.34;99463.12;4347407;33;33765;-79
2022/07/16 01:41:58;;;;;;;2.70;2.03;;;;;;;18.99;41.29;99452.63;4348956;33;33819;-79
2022/07/16 01:44:28;;;;;;;4.00;1.95;;;;;;;19.86;39.80;99453.09;4334129;33;35898;-80
2022/07/16 01:46:57;;;;;;;5.05;1.70;;;;;;;19.27;41.01;99454.88;4334594;33;33517;-80
2022/07/16 01:49:26;;;;;;;2.72;1.85;;;;;;;19.33;40.91;99459.03;4347653;33;33548;-79
2022/07/16 01:51:54;;;;;;;2.95;1.77;;;;;;;19.14;41.16;99467.75;4334226;33;34810;-80
2022/07/16 01:54:22;;;;;;;5.32;1.90;;;;;;;19.40;40.86;99468.41;4347066;33;35170;-80
2022/07/16 01:56:50;;;;;;;3.53;2.00;;;;;;;19.46;40.64;99467.25;4348917;33;34610;-79
2022/07/16 01:59:18;;;;;;;6.32;2.00;;;;;;;19.52;40.61;99465.19;4341314;33;34432;-86
2022/07/16 02:01:46;;;;;;;2.95;1.92;;;;;;;19.24;41.19;99470.84;4347409;33;33925;-80
2022/07/16 02:04:14;;;;;;;6.47;2.17;;;;;;;19.12;41.69;99460.84;4347140;33;35113;-80
2022/07/16 02:06:42;;;;;;;2.92;1.85;;;;;;;18.95;42.02;99461.56;4335413;33;34574;-79
2022/07/16 02:09:10;;;;;;;2.03;1.55;;;;;;;19.51;41.01;99455.53;4340486;33;34540;-80
2022/07/16 02:11:38;;;;;;;2.83;1.90;;;;;;;19.16;41.57;99456.28;4348768;33;33835;-90
2022/07/16 02:14:06;;;;;;;3.65;2.10;;;;;;;19.18;41.66;99455.28;4333911;33;35055;-80
2022/07/16 02:16:34;;;;;;;3.10;1.98;;;;;;;18.93;42.31;99460.78;4348857;33;34349;-80
2022/07/16 02:19:02;;;;;;;2.58;1.83;;;;;;;18.74;42.80;99452.75;4347140;33;34495;-80
2022/07/16 02:21:31;;;;;;;5.00;2.10;;;;;;;18.75;42.77;99459.75;4348714;33;33779;-92
2022/07/16 02:23:59;;;;;;;5.10;2.25;;;;;;;18.46;43.49;99461.84;4345881;33;35004;-81
2022/07/16 02:26:27;;;;;;;3.62;2.12;;;;;;;18.58;43.09;99460.47;4347334;33;34555;-87
2022/07/16 02:28:55;;;;;;;3.45;2.08;;;;;;;18.16;44.62;99456.06;4346852;33;34409;-80
2022/07/16 02:31:40;;;;;;;3.12;2.10;;;;;;;17.98;45.37;99461.13;4345240;33;33932;-91
2022/07/16 02:34:07;;;;;;;2.90;2.05;;;;;;;18.61;44.03;99455.06;4345585;33;36066;-90
2022/07/16 02:36:37;;;;;;;3.67;1.80;;;;;;;17.89;46.16;99456.19;4323201;33;32950;-80
2022/07/16 02:39:05;;;;;;;2.45;1.50;;;;;;;18.68;44.26;99459.16;4347083;33;33539;-80
2022/07/16 02:41:33;;;;;;;3.40;1.95;;;;;;;18.12;45.46;99459.69;4347245;33;33809;-79
2022/07/16 02:44:01;;;;;;;3.35;1.90;;;;;;;18.65;44.26;99458.44;4346947;33;35034;-80
2022/07/16 02:46:29;;;;;;;2.20;1.83;;;;;;;18.87;43.62;99458.41;4335259;33;33356;-84
2022/07/16 02:48:57;;;;;;;4.32;2.08;;;;;;;18.43;44.59;99459.31;4346884;33;33531;-79
2022/07/16 02:51:25;;;;;;;4.32;2.00;;;;;;;18.29;44.94;99461.66;4347143;33;33973;-80
2022/07/16 02:53:53;;;;;;;3.47;2.08;;;;;;;18.21;44.93;99463.75;4333437;33;35734;-80
2022/07/16 02:56:21;;;;;;;3.30;2.03;;;;;;;17.20;47.26;99462.22;4347042;33;34350;-80
2022/07/16 02:58:49;;;;;;;2.25;1.70;;;;;;;17.58;46.29;99465.25;4333817;33;34514;-80
2022/07/16 03:01:17;;;;;;;3.55;1.95;;;;;;;17.58;46.12;99472.28;4348454;33;33948;-81
2022/07/16 03:03:45;;;;;;;6.35;2.55;;;;;;;17.20;46.80;99470.13;4346773;33;35932;-80
2022/07/16 03:06:13;;;;;;;4.72;2.17;;;;;;;17.50;45.93;99467.28;4339964;33;34183;-80
2022/07/16 03:08:41;;;;;;;2.95;2.12;;;;;;;16.85;47.36;99469.63;4346646;33;33862;-79
2022/07/16 03:11:09;;;;;;;3.97;2.20;;;;;;;17.09;47.09;99472.28;4348422;33;34732;-91
2022/07/16 03:13:37;;;;;;;2.92;2.03;;;;;;;16.92;47.92;99472.88;4345426;33;35920;-80
2022/07/16 03:16:05;;;;;;;3.45;2.00;;;;;;;16.16;49.71;99481.50;4348363;33;34325;-79
2022/07/16 03:18:33;;;;;;;4.55;2.10;;;;;;;16.71;48.27;99477.06;4346773;33;33771;-79
2022/07/16 03:21:01;;;;;;;2.95;2.10;;;;;;;16.39;49.17;99481.63;4335348;33;34051;-79
2022/07/16 03:23:30;;;;;;;3.53;2.10;;;;;;;16.41;49.01;99479.81;4346479;33;34912;-80
2022/07/16 03:25:57;;;;;;;4.53;2.03;;;;;;;16.40;49.23;99483.34;4344868;33;34612;-80
2022/07/16 03:28:25;;;;;;;5.53;2.08;;;;;;;16.97;47.63;99488.50;4335888;33;33662;-80
2022/07/16 03:30:53;;;;;;;5.30;2.50;;;;;;;16.62;48.58;99488.78;4346588;33;34022;-82
2022/07/16 03:33:21;;;;;;;6.55;2.22;;;;;;;16.30;49.61;99485.41;4346314;33;35521;-82
2022/07/16 03:35:49;;;;;;;4.70;2.15;;;;;;;16.42;49.43;99493.81;4347471;33;34568;-85
2022/07/16 03:41:04;;;;;;;3.90;2.35;;;;;;;16.84;48.70;99494.19;4347889;33;34921;-86
2022/07/16 03:43:32;;;;;;;3.70;2.15;;;;;;;16.81;48.88;99502.12;4346365;33;35178;-83
2022/07/16 03:46:00;;;;;;;4.07;2.60;;;;;;;16.59;49.30;99501.12;4346600;33;35104;-88
2022/07/16 03:48:28;;;;;;;3.92;2.05;;;;;;;16.85;49.09;99497.66;4344802;33;33593;-87
2022/07/16 03:50:56;;;;;;;3.12;2.10;;;;;;;16.33;50.49;99494.12;4347864;33;33929;-90
2022/07/16 03:53:24;;;;;;;4.85;2.30;;;;;;;16.64;49.17;99499.22;4347360;33;34819;-89
2022/07/16 03:55:52;;;;;;;3.67;2.08;;;;;;;16.70;49.83;99499.03;4347592;33;35114;-90
2022/07/16 03:58:20;;;;;;;6.55;2.45;;;;;;;16.44;50.18;99500.72;4345693;33;34527;-89
2022/07/16 04:00:48;;;;;;;3.20;2.17;;;;;;;16.49;50.56;99504.06;4346584;33;34632;-80
2022/07/16 04:03:16;;;;;;;8.15;2.87;;;;;;;16.99;50.07;99502.47;4344729;33;35981;-80
2022/07/16 04:05:44;;;;;;;3.78;2.10;;;;;;;16.33;52.72;99497.59;4338321;33;34469;-79
2022/07/16 04:08:12;;;;;;;3.87;2.37;;;;;;;16.86;51.59;99496.78;4328810;33;33636;-80
2022/07/16 04:10:40;;;;;;;3.62;2.15;;;;;;;16.46;52.70;99498.91;4347485;33;34455;-79
2022/07/16 04:13:09;;;;;;;5.70;2.60;;;;;;;17.38;51.21;99509.88;4346520;33;36007;-86
2022/07/16 04:15:37;;;;;;;4.82;2.15;;;;;;;17.43;50.50;99500.03;4333914;33;34510;-88
2022/07/16 04:18:06;;;;;;;5.97;2.28;;;;;;;17.11;51.11;99507.31;4346223;33;33882;-89
2022/07/16 04:20:34;;;;;;;4.47;2.30;;;;;;;17.32;50.12;99504.84;4346668;33;33990;-83
2022/07/16 04:23:02;;;;;;;7.60;2.17;;;;;;;17.33;50.21;99510.03;4332483;33;35852;-88
2022/07/16 04:25:31;;;;;;;3.50;2.17;;;;;;;17.85;49.99;99507.25;4332643;33;34170;-89
2022/07/16 04:27:59;;;;;;;4.90;2.03;;;;;;;18.12;49.62;99509.78;4347112;33;33745;-87
2022/07/16 04:30:27;;;;;;;9.98;2.45;;;;;;;18.11;48.58;99506.28;4345508;33;33782;-81
2022/07/16 04:32:55;;;;;;;4.65;2.20;;;;;;;18.33;47.96;99505.44;4346976;33;35033;-87
2022/07/16 04:35:23;;;;;;;3.85;1.95;;;;;;;19.11;45.92;99504.87;4345373;33;34984;-81
2022/07/16 04:37:51;;;;;;;5.50;2.15;;;;;;;20.04;43.86;99506.88;4345831;33;33779;-80
2022/07/16 04:40:19;;;;;;;4.70;1.90;;;;;;;20.25;43.48;99507.63;4345238;33;33470;-91
2022/07/16 04:42:47;;;;;;;2.83;1.87;;;;;;;20.48;43.18;99500.38;4345663;33;35018;-85
2022/07/16 04:45:15;;;;;;;3.95;2.05;;;;;;;20.63;41.93;99504.09;4344027;33;35343;-80
2022/07/16 04:47:43;;;;;;;6.12;1.87;;;;;;;20.59;41.94;99498.03;4347780;33;33801;-88
2022/07/16 04:50:11;;;;;;;3.67;1.85;;;;;;;20.99;41.11;99498.72;4347445;33;34822;-91
2022/07/16 04:52:39;;;;;;;2.92;1.75;;;;;;;20.80;41.13;99501.44;4349204;33;36024;-89
2022/07/16 04:55:08;;;;;;;4.22;2.05;;;;;;;20.48;41.37;99500.38;4344259;33;34633;-85
2022/07/16 04:57:36;;;;;;;10.55;1.80;;;;;;;20.78;40.75;99502.47;4349206;33;34395;-82
2022/07/16 05:00:05;;;;;;;4.07;2.15;;;;;;;20.82;40.47;99504.00;4347430;33;33931;-83
2022/07/16 05:05:20;;;;;;;2.53;1.58;;;;;;;21.17;39.46;99504.84;4336448;33;34548;-83
2022/07/16 05:07:48;;;;;;;4.12;1.95;;;;;;;21.21;39.49;99500.25;4348128;33;33056;-82
2022/07/16 05:10:16;;;;;;;8.00;2.15;;;;;;;21.20;39.98;99502.06;4342063;33;33995;-90
2022/07/16 05:12:44;;;;;;;4.22;2.30;;;;;;;21.82;38.92;99504.13;4349004;33;35042;-90
2022/07/16 05:15:13;;;;;;;7.53;1.83;;;;;;;21.98;38.74;99503.28;4347225;33;34915;-89
2022/07/16 05:17:40;;;;;;;3.30;1.70;;;;;;;22.31;38.10;99498.78;4349140;33;33643;-90
2022/07/16 05:20:09;;;;;;;5.43;1.92;;;;;;;22.30;37.58;99504.16;4334191;33;33846;-84
2022/07/16 05:22:37;;;;;;;3.35;2.00;;;;;;;22.30;37.72;99509.47;4345291;33;36025;-90
2022/07/16 05:25:06;;;;;;;6.32;2.08;;;;;;;21.84;38.68;99512.00;4345674;33;34569;-85
2022/07/16 05:27:35;;;;;;;3.65;1.90;;;;;;;22.16;37.55;99507.56;4348846;33;34493;-83
2022/07/16 05:30:04;;;;;;;3.30;2.12;;;;;;;21.91;37.67;99508.91;4334046;33;34615;-83
2022/07/16 05:32:42;;;;;;;3.17;1.70;;;;;;;22.06;37.82;99509.00;4347917;33;34928;-84
2022/07/16 05:35:12;;;;;;;6.65;2.30;;;;;;;22.05;37.77;99508.16;4326566;33;35153;-81
2022/07/16 05:37:40;;;;;;;4.53;1.80;;;;;;;21.96;38.56;99519.28;4336928;33;33660;-81
2022/07/16 05:40:10;;;;;;;2.67;1.60;;;;;;;21.87;37.62;99515.34;4333747;33;34779;-81
2022/07/16 05:42:38;;;;;;;2.22;1.60;;;;;;;21.65;38.88;99523.56;4348715;33;35107;-80
2022/07/16 05:45:14;;;;;;;;;;;;;;;22.22;37.66;99519.59;4347660;33;34362;-80
2022/07/16 05:47:42;;;;;;;4.35;1.73;;;;;;;21.90;38.98;99520.47;4334220;33;33785;-83
2022/07/16 05:50:10;;;;;;;4.30;1.80;;;;;;;22.51;36.95;99516.19;4347115;33;34080;-81
2022/07/16 05:52:38;;;;;;;2.92;1.70;;;;;;;22.36;37.04;99519.75;4335587;33;35001;-83
2022/07/16 05:55:07;;;;;;;2.95;1.70;;;;;;;22.97;36.76;99527.75;4345794;33;35378;-83
2022/07/16 05:57:34;;;;;;;2.05;1.50;;;;;;;22.90;37.01;99528.09;4347250;33;33018;-82
2022/07/16 06:00:04;;;;;;;2.10;1.60;;;;;;;22.51;37.73;99521.50;4347112;33;34747;-80
2022/07/16 06:02:42;;;;;;;3.83;1.80;;;;;;;22.61;37.57;99526.31;4348792;33;36001;-80
2022/07/16 06:05:10;;;;;;;2.80;1.60;;;;;;;23.46;35.91;99524.84;4347158;33;34549;-80
2022/07/16 06:07:39;;;;;;;3.40;2.12;;;;;;;23.73;35.58;99521.41;4348602;33;33777;-80
2022/07/16 06:10:07;;;;;;;2.10;1.60;;;;;;;23.63;36.41;99531.75;4327971;33;33928;-79
2022/07/16 06:12:35;;;;;;;2.15;1.48;;;;;;;24.22;34.14;99532.50;4348801;33;35075;-80
2022/07/16 06:15:05;;;;;;;3.10;1.80;;;;;;;24.23;34.40;99530.72;4347054;33;35355;-80
2022/07/16 06:17:33;;;;;;;6.30;2.53;;;;;;;24.51;34.86;99528.87;4334439;33;33549;-80
2022/07/16 06:20:01;;;;;;;2.83;1.70;;;;;;;24.82;33.66;99534.91;4333937;33;34612;-82
2022/07/16 06:22:29;;;;;;;2.92;1.60;;;;;;;24.54;34.96;99536.72;4335562;33;35789;-81
2022/07/16 06:24:57;;;;;;;7.97;1.80;;;;;;;25.17;33.27;99541.34;4347079;33;34638;-81
2022/07/16 06:27:25;;;;;;;3.45;1.90;;;;;;;25.47;33.23;99534.91;4347270;33;33569;-82
2022/07/16 06:29:53;;;;;;;4.53;1.80;;;;;;;25.03;33.11;99544.09;4347064;33;33808;-81
2022/07/16 06:32:21;;;;;;;2.55;1.50;;;;;;;25.35;33.00;99546.41;4348903;33;34927;-81
2022/07/16 06:34:49;;;;;;;2.40;1.50;;;;;;;25.47;32.27;99553.56;4336610;33;34505;-82
2022/07/16 06:37:17;;;;;;;2.97;1.52;;;;;;;25.22;33.26;99548.19;4333870;33;34518;-83
2022/07/16 06:39:45;;;;;;;2.78;1.70;;;;;;;24.98;33.26;99549.72;4333858;33;33861;-81
2022/07/16 06:42:13;;;;;;;3.87;1.70;;;;;;;25.08;33.39;99551.81;4333841;33;35884;-80
2022/07/16 06:44:41;;;;;;;2.45;1.50;;;;;;;24.85;34.77;99545.31;4332222;33;35152;-79
2022/07/16 06:47:09;;;;;;;4.05;1.50;;;;;;;25.47;32.61;99548.25;4333277;33;33960;-80
2022/07/16 06:49:37;;;;;;;3.90;1.55;;;;;;;25.06;33.19;99546.56;4340564;33;33996;-80
2022/07/16 06:52:06;;;;;;;3.85;1.65;;;;;;;26.11;33.29;99539.34;4346884;33;35128;-80
2022/07/16 06:54:34;;;;;;;2.58;1.27;;;;;;;25.90;32.37;99536.34;4346777;33;35256;-82
2022/07/16 06:57:02;;;;;;;4.95;1.65;;;;;;;26.29;30.41;99537.16;4327555;33;33451;-81
2022/07/16 06:59:30;;;;;;;2.37;1.30;;;;;;;26.73;30.10;99541.03;4320467;33;34715;-81
2022/07/16 07:01:58;;;;;;;2.22;1.50;;;;;;;26.99;29.20;99539.09;4320065;33;33026;-82
2022/07/16 07:04:26;;;;;;;3.40;1.52;;;;;;;26.76;32.22;99545.31;4333712;33;35193;-80
2022/07/16 07:06:54;;;;;;;9.55;2.12;;;;;;;27.58;28.58;99537.28;4333426;33;34447;-81
2022/07/16 07:09:22;;;;;;;3.47;1.50;;;;;;;27.01;29.95;99534.47;4333692;33;33986;-82
2022/07/16 07:11:50;;;;;;;3.92;1.60;;;;;;;26.35;30.79;99538.50;4338071;33;35051;-82
2022/07/16 07:14:18;;;;;;;1.92;1.35;;;;;;;27.67;29.49;99541.06;4345301;33;34448;-81
2022/07/16 07:16:46;;;;;;;2.00;1.37;;;;;;;27.20;29.59;99541.94;4348120;33;34485;-80
2022/07/16 07:19:14;;;;;;;4.43;1.50;;;;;;;26.83;30.21;99546.56;4333560;33;33965;-82
2022/07/16 07:21:42;;;;;;;2.35;1.30;;;;;;;27.08;29.33;99547.38;4348185;33;35874;-82
2022/07/16 07:24:09;;;;;;;3.55;1.50;;;;;;;26.76;30.03;99550.66;4345829;33;34586;-83
2022/07/16 07:26:57;;;;;;;4.18;1.50;;;;;;;26.99;29.56;99549.78;4348096;33;33669;-86
2022/07/16 07:29:25;;;;;;;4.50;1.60;;;;;;;26.32;29.91;99538.75;4345085;33;34735;-81
2022/07/16 07:31:53;;;;;;;10.10;1.55;;;;;;;26.62;31.68;99539.19;4348171;33;36029;-83
2022/07/16 07:34:22;;;;;;;1.70;1.30;;;;;;;26.40;30.55;99539.03;4346434;33;33953;-82
2022/07/16 07:36:49;;;;;;;5.15;1.40;;;;;;;26.76;30.53;99539.97;4347990;33;33778;-86
2022/07/16 07:39:17;;;;;;;3.33;1.35;;;;;;;27.35;30.47;99542.59;4346342;33;34089;-84
2022/07/16 07:41:45;;;;;;;1.52;1.10;;;;;;;27.42;29.77;99548.34;4342429;33;35042;-82
2022/07/16 07:44:13;;;;;;;4.57;1.70;;;;;;;28.45;27.61;99542.84;4345038;33;34631;-81
2022/07/16 07:46:41;;;;;;;5.55;3.72;;;;;;;27.68;28.54;99540.09;4346522;33;34365;-81
2022/07/16 07:49:11;;;;;;;4.20;1.60;;;;;;;27.72;27.92;99537.03;4346661;33;34723;-82
2022/07/16 07:51:39;;;;;;;3.65;2.25;;;;;;;28.10;27.66;99538.53;4347908;33;35067;-90
2022/07/16 07:54:07;;;;;;;5.30;2.22;;;;;;;28.18;26.67;99540.56;4346179;33;34331;-81
2022/07/16 07:56:36;;;;;;;28.73;18.73;;;;;;;29.32;25.76;99546.44;4347549;33;34311;-82
2022/07/16 07:59:03;;;;;;;4.75;2.12;;;;;;;29.52;24.16;99536.66;4341578;33;173739;-81
2022/07/16 08:01:31;;;;;;;4.12;1.52;;;;;;;29.44;24.36;99535.47;4344170;33;35616;-80
2022/07/16 08:03:59;;;;;;;2.67;1.33;;;;;;;29.96;23.45;99534.59;4348017;33;34715;-82
2022/07/16 08:06:27;;;;;;;3.05;1.67;;;;;;;29.43;24.96;99538.28;4319799;33;32310;-85
2022/07/16 08:08:55;;;;;;;6.15;1.50;;;;;;;30.20;23.64;99532.41;4318197;33;33921;-83
2022/07/16 08:11:27;;;;;;;3.67;1.75;;;;;;;30.02;23.27;99528.69;4345176;33;35952;-82
2022/07/16 08:13:54;;;;;;;1.92;1.37;;;;;;;29.61;24.81;99534.00;4334424;33;34423;-83
2022/07/16 08:16:43;;;;;;;4.18;1.52;;;;;;;28.97;25.60;99526.94;4341939;33;33656;-81
2022/07/16 08:19:10;;;;;;;2.12;1.40;;;;;;;29.94;22.97;99518.63;4331821;33;34056;-82
2022/07/16 08:21:39;;;;;;;2.95;1.23;;;;;;;29.81;24.07;99526.09;4348099;33;35805;-86
2022/07/16 08:27:04;;;;;;;7.05;1.40;;;;;;;29.48;23.86;99526.16;4296846;33;33527;-81
2022/07/16 08:29:33;;;;;;;2.62;1.30;;;;;;;29.41;25.82;99529.53;4347902;33;34760;-80
2022/07/16 08:32:00;;;;;;;2.70;1.30;;;;;;;29.69;24.80;99522.59;4347607;33;35065;-82
2022/07/16 08:34:28;;;;;;;2.70;1.20;;;;;;;30.61;22.93;99521.63;4346533;33;35354;-85
2022/07/16 08:36:56;;;;;;;6.20;1.50;;;;;;;30.69;22.63;99526.28;4347884;33;34598;-81
2022/07/16 08:39:24;;;;;;;5.18;1.62;;;;;;;29.94;24.15;99521.31;4346501;33;34022;-81
2022/07/16 08:41:53;;;;;;;5.15;1.35;;;;;;;30.67;22.57;99523.72;4349386;33;36012;-82
2022/07/16 08:44:22;;;;;;;4.60;1.40;;;;;;;30.59;23.07;99523.59;4334827;33;34419;-81
2022/07/16 08:46:50;;;;;;;5.12;1.60;;;;;;;31.13;22.38;99524.88;4349208;33;33874;-92
2022/07/16 08:49:20;;;;;;;4.05;1.58;;;;;;;30.52;22.77;99520.63;4334417;33;35365;-84
2022/07/16 08:51:48;;;;;;;6.62;1.65;;;;;;;31.65;21.49;99520.94;4320007;33;35046;-91
2022/07/16 08:54:19;;;;;;;4.87;1.40;;;;;;;31.89;23.12;99510.50;4319795;33;34334;-82
2022/07/16 08:56:49;;;;;;;8.05;1.87;;;;;;;32.04;21.73;99524.31;4347395;33;32664;-81
2022/07/16 08:59:17;;;;;;;15.80;5.60;;;;;;;30.80;22.62;99520.78;4336168;33;33275;-83
2022/07/16 09:01:45;;;;;;;7.53;2.40;;;;;;;30.46;23.46;99525.69;4348389;33;35154;-83
2022/07/16 09:04:13;;;;;;;7.53;5.03;;;;;;;30.40;23.55;99522.56;4349189;33;34779;-82
2022/07/16 09:06:42;;;;;;;2.78;1.50;;;;;;;30.14;26.24;99524.06;4346937;33;33664;-82
2022/07/16 09:09:10;;;;;;;5.28;1.55;;;;;;;30.06;24.08;99519.38;4349279;33;34022;-83
2022/07/16 09:11:38;;;;;;;2.78;1.30;;;;;;;30.02;25.26;99510.75;4347560;33;34449;-87
2022/07/16 09:14:15;;;;;;;2.00;1.40;;;;;;;31.19;20.89;99508.16;4349212;33;34593;-82
2022/07/16 09:16:50;;;;;;;2.28;1.33;;;;;;;31.50;21.47;99502.59;4347573;33;33808;-82
2022/07/16 09:19:21;;;;;;;5.12;1.60;;;;;;;32.20;21.32;99501.28;4349225;33;34055;-82
2022/07/16 09:22:00;;;;;;;5.22;1.50;;;;;;;32.26;20.64;99497.94;4347785;33;35824;-82
2022/07/16 09:24:33;;;;;;;1.77;1.30;;;;;;;31.01;22.82;99504.50;4348189;33;34467;-84
2022/07/16 09:27:03;;;;;;;2.65;1.33;;;;;;;31.02;22.68;99490.06;4319780;33;34642;-86
2022/07/16 09:29:37;;;;;;;2.03;1.42;;;;;;;30.88;22.43;99502.06;4319578;33;34380;-81
2022/07/16 09:32:05;;;;;;;5.40;1.48;;;;;;;31.66;24.08;99493.00;4330342;33;35759;-81
2022/07/16 09:34:33;;;;;;;5.35;1.55;;;;;;;31.55;22.86;99483.28;4331065;33;34459;-83
2022/07/16 09:37:03;;;;;;;3.35;1.25;;;;;;;31.53;23.82;99499.56;4320213;33;34108;-82
2022/07/16 09:39:33;;;;;;;3.95;1.50;;;;;;;32.55;20.52;99497.75;4348413;33;33078;-81
2022/07/16 09:42:01;;;;;;;9.07;2.03;;;;;;;32.85;20.73;99488.44;4348926;33;35137;-81
2022/07/16 09:44:34;;;;;;;2.83;1.50;;;;;;;31.50;20.77;99489.13;4323399;33;32913;-88
2022/07/16 09:47:05;;;;;;;3.53;1.40;;;;;;;31.75;21.23;99478.69;4347516;33;33920;-82
2022/07/16 09:49:36;;;;;;;3.83;1.67;;;;;;;30.59;24.10;99483.28;4348169;33;34043;-81
2022/07/16 09:52:08;;;;;;;6.03;1.85;;;;;;;32.39;21.67;99482.25;4307886;33;35144;-83
2022/07/16 09:54:38;;;;;;;2.60;1.42;;;;;;;32.48;21.43;99483.19;4334749;33;35217;-82
2022/07/16 09:57:06;;;;;;;3.37;1.60;;;;;;;33.04;20.85;99475.75;4306785;33;34574;-82
2022/07/16 09:59:34;;;;;;;4.22;1.77;;;;;;;33.49;21.14;99487.38;4319333;33;33854;-81
2022/07/16 10:02:23;;;;;;;2.10;1.67;;;;;;;32.75;21.37;99484.13;4319473;33;35205;-81
2022/07/16 10:04:51;;;;;;;6.80;1.70;;;;;;;32.64;21.64;99472.56;4326091;33;34681;-81
2022/07/16 10:07:19;;;;;;;2.20;1.60;;;;;;;33.14;20.57;99478.38;4341817;33;34589;-81
2022/07/16 10:09:47;;;;;;;2.80;1.48;;;;;;;32.71;21.36;99477.38;4344731;33;33996;-86
2022/07/16 10:12:18;;;;;;;2.35;1.52;;;;;;;32.71;21.66;99470.13;4334309;33;35164;-80
2022/07/16 10:14:51;;;;;;;2.53;1.60;;;;;;;32.70;21.65;99465.72;4310485;33;34467;-81
2022/07/16 10:17:22;;;;;;;;;;;;;;;32.36;21.88;99463.69;4336435;33;34465;-81
2022/07/16 10:20:00;;;;;;;2.45;1.60;;;;;;;32.26;23.04;99458.41;4333931;33;34138;-82
2022/07/16 10:22:31;;;;;;;3.97;1.85;;;;;;;31.96;22.31;99464.09;4347088;33;35046;-88
2022/07/16 10:24:59;;;;;;;2.72;1.77;;;;;;;32.08;22.56;99454.81;4332457;33;35142;-85
2022/07/16 10:27:35;;;;;;;5.65;1.77;;;;;;;32.51;21.74;99450.53;4335373;33;33777;-79
2022/07/16 10:30:13;;;;;;;3.15;1.45;;;;;;;32.37;22.71;99451.94;4347135;33;33963;-82
2022/07/16 10:33:16;;;;;;;5.25;1.67;;;;;;;32.11;22.06;99457.22;4348707;33;34993;-83
2022/07/16 10:35:48;;;;;;;3.83;1.67;;;;;;;32.56;22.30;99453.63;4347110;33;34337;-81
2022/07/16 10:38:24;;;;;;;3.33;1.75;;;;;;;32.86;22.39;99443.41;4348610;33;33610;-81
2022/07/16 10:41:13;;;;;;;2.17;1.50;;;;;;;32.31;22.75;99437.22;4345654;33;34180;-83
2022/07/16 10:43:43;;;;;;;7.80;1.87;;;;;;;33.40;21.55;99427.91;4348670;33;34686;-81
2022/07/16 10:46:12;;;;;;;4.20;1.45;;;;;;;33.63;20.90;99438.97;4332647;33;34372;-80
2022/07/16 10:48:40;;;;;;;2.85;1.50;;;;;;;31.81;22.19;99432.28;4348498;33;33464;-81
2022/07/16 10:51:15;;;;;;;3.15;1.90;;;;;;;31.63;22.77;99429.56;4336872;33;34213;-81
2022/07/16 10:53:56;;;;;;;2.50;1.55;;;;;;;32.78;21.56;99432.59;4333284;33;35883;-80
2022/07/16 10:56:31;;;;;;;3.70;1.60;;;;;;;32.76;22.20;99413.03;4328681;33;34042;-83
2022/07/16 10:59:01;;;;;;;2.70;1.60;;;;;;;32.59;23.16;99422.78;4325669;33;34553;-81
2022/07/16 11:01:30;;;;;;;4.75;1.62;;;;;;;32.64;22.10;99425.91;4327789;33;34587;-81
2022/07/16 11:03:58;;;;;;;3.55;1.60;;;;;;;32.52;21.75;99419.88;4312870;33;34965;-80
2022/07/16 11:06:27;;;;;;;5.25;1.60;;;;;;;31.96;22.54;99415.59;4313573;33;33009;-84
2022/07/16 11:08:56;;;;;;;2.17;1.58;;;;;;;32.81;22.19;99408.84;4320617;33;33531;-83
2022/07/16 11:11:37;;;;;;;3.60;1.90;;;;;;;33.39;21.48;99403.78;4328728;33;33948;-85
2022/07/16 11:14:08;;;;;;;7.37;1.95;;;;;;;33.37;22.48;99406.66;4330091;33;35057;-81
2022/07/16 11:16:50;;;;;;;9.20;2.28;;;;;;;33.87;21.71;99407.72;4325774;33;34506;-82
2022/07/16 11:19:18;;;;;;;2.42;1.60;;;;;;;33.71;20.75;99411.22;4318933;33;33670;-82
2022/07/16 11:21:57;;;;;;;3.20;1.90;;;;;;;33.73;21.66;99411.88;4340319;33;33994;-81
2022/07/16 11:24:27;;;;;;;7.70;2.00;;;;;;;34.45;20.33;99400.53;4342681;33;34987;-87
2022/07/16 11:26:56;;;;;;;4.18;2.12;;;;;;;34.05;22.19;99396.75;4333147;33;34808;-83
2022/07/16 11:29:25;;;;;;;5.47;2.08;;;;;;;33.27;21.12;99402.38;4341495;33;34521;-80
2022/07/16 11:31:55;;;;;;;3.17;1.65;;;;;;;33.71;23.13;99411.22;4329726;33;33955;-83
2022/07/16 11:34:24;;;;;;;7.53;1.95;;;;;;;32.99;20.97;99400.69;4324636;33;34671;-82
2022/07/16 11:36:55;;;;;;;5.15;2.10;;;;;;;33.21;21.64;99412.81;4313876;33;35168;-84
2022/07/16 11:39:25;;;;;;;2.58;1.80;;;;;;;33.40;21.77;99413.59;4327442;33;33510;-81
2022/07/16 11:41:56;;;;;;;3.75;1.70;;;;;;;32.60;23.22;99414.59;4339703;33;34393;-83
2022/07/16 11:44:31;;;;;;;3.55;1.80;;;;;;;32.97;21.51;99413.50;4324739;33;35090;-80
2022/07/16 11:47:02;;;;;;;2.37;1.55;;;;;;;32.76;21.70;99415.72;4346196;33;34735;-82
2022/07/16 11:49:38;;;;;;;3.33;1.70;;;;;;;33.03;23.68;99404.75;4345546;33;33594;-84
2022/07/16 11:52:10;;;;;;;;;;;;;;;33.28;21.61;99395.97;4309361;33;34612;-84
2022/07/16 11:54:40;;;;;;;3.50;1.60;;;;;;;32.88;22.23;99398.28;4305439;33;36231;-82
2022/07/16 11:57:10;;;;;;;7.45;1.92;;;;;;;32.62;22.17;99401.78;4343626;33;35208;-84